Terminal Aerodrome Forecast
Issued by NWS Wilmington, OH

Current Version | Previous Version | Graphics & Text | Print | Product List | Glossary On
Versions: 1 2 3 4 5 6 7 8 9 10 11 12 13 14 15 16 17 18 19 20 21
000
FTUS41 KILN 280531
TAFILN
TAF
KILN 280531Z 2806/2906 18005KT P6SM FEW060 BKN150
     FM281400 21009KT P6SM VCSH BKN040 OVC120
     FM281800 21010KT P6SM VCTS BKN040CB OVC150
     FM282200 22011KT P6SM FEW040 BKN150
     FM290000 21004KT P6SM BKN150=

USA.gov is the U.S. government's official web portal to all federal, state and local government web resources and services.